createdAt,value
2022-12-03T00:00:39.091Z,39.33
2022-12-03T00:03:06.314Z,36.45
2022-12-03T00:05:33.492Z,35.87
2022-12-03T00:08:00.646Z,37.95
2022-12-03T00:10:27.718Z,36.90
2022-12-03T00:12:54.813Z,37.40
2022-12-03T00:15:21.872Z,36.33
2022-12-03T00:17:48.948Z,40.17
2022-12-03T00:20:21.697Z,37.38
2022-12-03T00:22:49.022Z,35.53
2022-12-03T00:25:16.524Z,30.38
2022-12-03T00:27:43.634Z,33.60
2022-12-03T00:30:11.812Z,32.90
2022-12-03T00:32:39.093Z,33.33
2022-12-03T00:35:06.616Z,34.67
2022-12-03T00:37:35.155Z,37.20
2022-12-03T00:40:04.000Z,36.30
2022-12-03T00:42:31.122Z,27.97
2022-12-03T00:44:58.229Z,32.80
2022-12-03T00:47:25.294Z,30.38
2022-12-03T00:49:52.448Z,34.42
2022-12-03T00:52:19.786Z,36.10
2022-12-03T00:54:46.894Z,35.97
2022-12-03T00:57:14.009Z,35.13
2022-12-03T00:59:41.387Z,34.22
2022-12-03T01:02:08.616Z,33.42
2022-12-03T01:04:36.151Z,38.38
2022-12-03T01:07:03.893Z,36.27
2022-12-03T01:09:31.682Z,36.22
2022-12-03T01:11:59.379Z,34.70
2022-12-03T01:14:26.669Z,34.33
2022-12-03T01:16:53.862Z,38.90
2022-12-03T01:19:21.524Z,34.07
2022-12-03T01:21:50.321Z,33.08
2022-12-03T01:24:18.751Z,32.92
2022-12-03T01:26:46.127Z,34.72
2022-12-03T01:29:14.643Z,32.20
2022-12-03T01:32:00.168Z,33.00
2022-12-03T01:34:27.438Z,32.17
2022-12-03T01:36:54.809Z,35.92
2022-12-03T01:39:22.461Z,34.55
2022-12-03T01:41:52.114Z,31.17
2022-12-03T01:44:23.412Z,30.27
2022-12-03T01:46:52.296Z,37.83
2022-12-03T01:49:22.988Z,33.50
2022-12-03T01:51:52.151Z,37.45
2022-12-03T01:54:41.086Z,36.58
2022-12-03T01:57:35.351Z,35.97
2022-12-03T02:00:02.609Z,32.78
2022-12-03T02:02:31.039Z,32.40
2022-12-03T02:04:58.852Z,33.00
2022-12-03T02:07:27.646Z,32.55
2022-12-03T02:09:57.485Z,31.00
2022-12-03T02:12:49.747Z,32.03
2022-12-03T02:15:18.402Z,34.60
2022-12-03T02:17:46.008Z,33.17
2022-12-03T02:20:13.823Z,27.83
2022-12-03T02:22:51.259Z,33.33
2022-12-03T02:25:21.378Z,32.80
2022-12-03T02:27:49.014Z,34.17
2022-12-03T02:30:19.142Z,32.55
2022-12-03T02:32:47.213Z,34.00
2022-12-03T02:35:16.411Z,30.00
2022-12-03T02:37:44.243Z,28.80
2022-12-03T02:40:13.168Z,31.50
2022-12-03T02:42:41.647Z,34.30
2022-12-03T02:45:11.747Z,29.95
2022-12-03T02:47:44.552Z,32.03
2022-12-03T02:50:15.553Z,31.10
2022-12-03T02:52:44.122Z,29.52
2022-12-03T02:55:12.948Z,32.20
2022-12-03T02:57:40.418Z,32.22
2022-12-03T03:00:09.478Z,29.90
2022-12-03T03:02:37.446Z,30.77
2022-12-03T03:05:06.793Z,32.58
2022-12-03T03:07:34.119Z,31.60
2022-12-03T03:10:02.333Z,30.70
2022-12-03T03:12:29.406Z,35.00
2022-12-03T03:14:57.623Z,34.25
2022-12-03T03:17:24.864Z,36.55
2022-12-03T03:19:52.036Z,34.15
2022-12-03T03:22:19.242Z,34.33
2022-12-03T03:24:46.376Z,28.83
2022-12-03T03:27:13.417Z,31.35
2022-12-03T03:29:40.501Z,29.00
2022-12-03T03:32:07.737Z,30.50
2022-12-03T03:34:34.813Z,30.60
2022-12-03T03:37:01.887Z,31.90
2022-12-03T03:39:29.031Z,30.05
2022-12-03T03:41:56.135Z,32.88
2022-12-03T03:44:23.312Z,34.55
2022-12-03T03:46:50.385Z,32.90
2022-12-03T03:49:17.506Z,28.57
2022-12-03T03:51:44.656Z,34.20
2022-12-03T03:54:12.507Z,37.33
2022-12-03T03:56:40.248Z,30.60
2022-12-03T03:59:07.542Z,28.05
2022-12-03T04:01:34.664Z,30.20
2022-12-03T04:04:01.980Z,28.95
2022-12-03T04:06:29.150Z,28.83
2022-12-03T04:08:56.614Z,40.22
2022-12-03T04:11:42.027Z,30.80
2022-12-03T04:14:09.150Z,28.73
2022-12-03T04:16:36.308Z,33.13
2022-12-03T04:19:03.449Z,32.00
2022-12-03T04:21:49.099Z,34.75
2022-12-03T04:24:16.180Z,29.67
2022-12-03T04:27:01.786Z,33.23
2022-12-03T04:29:28.861Z,28.55
2022-12-03T04:32:14.448Z,31.25
2022-12-03T04:35:00.209Z,28.02
2022-12-03T04:37:27.259Z,31.27
2022-12-03T04:39:54.538Z,30.13
2022-12-03T04:42:21.592Z,30.05
2022-12-03T04:44:48.669Z,28.55
2022-12-03T04:47:18.078Z,34.72
2022-12-03T04:49:47.175Z,27.25
2022-12-03T04:52:16.815Z,36.67
2022-12-03T04:54:43.959Z,30.25
2022-12-03T04:57:11.636Z,28.83
2022-12-03T04:59:39.178Z,31.52
2022-12-03T05:02:06.672Z,28.25
2022-12-03T05:04:33.990Z,26.90
2022-12-03T05:07:01.859Z,32.83
2022-12-03T05:09:29.075Z,26.33
2022-12-03T05:11:56.144Z,27.67
2022-12-03T05:14:23.423Z,30.08
2022-12-03T05:16:50.529Z,27.80
2022-12-03T05:19:17.648Z,35.53
2022-12-03T05:21:44.711Z,30.25
2022-12-03T05:24:11.747Z,32.20
2022-12-03T05:26:38.830Z,28.48
2022-12-03T05:29:05.902Z,34.23
2022-12-03T05:31:32.954Z,27.65
2022-12-03T05:34:00.037Z,31.67
2022-12-03T05:36:27.274Z,26.92
2022-12-03T05:38:54.367Z,28.95
2022-12-03T05:41:40.199Z,28.07
2022-12-03T05:44:07.286Z,32.60
2022-12-03T05:46:34.677Z,28.48
2022-12-03T05:49:01.787Z,28.88
2022-12-03T05:51:28.900Z,30.50
2022-12-03T05:53:55.983Z,29.13
2022-12-03T05:56:23.110Z,27.60
2022-12-03T05:58:50.166Z,29.85
2022-12-03T06:01:17.218Z,31.48
2022-12-03T06:03:44.477Z,31.90
2022-12-03T06:06:11.673Z,32.50
2022-12-03T06:08:38.760Z,31.73
2022-12-03T06:11:05.923Z,30.02
2022-12-03T06:13:32.989Z,28.85
2022-12-03T06:16:00.174Z,31.00
2022-12-03T06:18:27.329Z,27.90
2022-12-03T06:20:54.398Z,26.35
2022-12-03T06:23:21.437Z,31.15
2022-12-03T06:25:48.457Z,32.08
2022-12-03T06:28:15.691Z,28.50
2022-12-03T06:30:42.726Z,27.20
2022-12-03T06:33:09.815Z,30.08
2022-12-03T06:35:36.836Z,28.42
2022-12-03T06:38:03.937Z,28.70
2022-12-03T06:40:31.057Z,28.00
2022-12-03T06:42:58.082Z,28.50
2022-12-03T06:45:25.259Z,28.92
2022-12-03T06:47:52.341Z,28.33
2022-12-03T06:50:19.396Z,26.92
2022-12-03T06:52:46.465Z,33.67
2022-12-03T06:55:13.539Z,27.00
2022-12-03T06:57:40.622Z,30.60
2022-12-03T07:00:09.327Z,25.05
2022-12-03T07:02:36.448Z,27.50
2022-12-03T07:05:04.258Z,26.88
2022-12-03T07:07:31.511Z,30.63
2022-12-03T07:09:58.666Z,29.42
2022-12-03T07:12:25.757Z,33.70
2022-12-03T07:14:53.383Z,28.63
2022-12-03T07:17:20.965Z,33.42
2022-12-03T07:19:48.006Z,28.47
2022-12-03T07:22:15.064Z,28.73
2022-12-03T07:24:42.141Z,27.90
2022-12-03T07:27:09.250Z,26.60
2022-12-03T07:29:36.315Z,30.63
2022-12-03T07:32:03.428Z,25.27
2022-12-03T07:34:30.508Z,27.25
2022-12-03T07:36:57.676Z,26.73
2022-12-03T07:39:24.811Z,27.10
2022-12-03T07:41:51.890Z,32.67
2022-12-03T07:44:19.027Z,37.63
2022-12-03T07:46:46.165Z,36.85
2022-12-03T07:49:13.474Z,28.95
2022-12-03T07:51:40.601Z,30.35
2022-12-03T07:54:07.737Z,31.90
2022-12-03T07:56:57.976Z,26.97
2022-12-03T07:59:28.680Z,30.63
2022-12-03T08:01:55.854Z,28.27
2022-12-03T08:04:22.976Z,27.58
2022-12-03T08:06:50.065Z,26.33
2022-12-03T08:09:17.167Z,30.87
2022-12-03T08:11:45.817Z,31.42
2022-12-03T08:14:20.031Z,28.60
2022-12-03T08:16:48.043Z,29.00
2022-12-03T08:19:16.779Z,34.22
2022-12-03T08:21:44.353Z,30.83
2022-12-03T08:24:19.804Z,25.92
2022-12-03T08:26:48.669Z,33.78
2022-12-03T08:29:18.625Z,28.50
2022-12-03T08:31:52.044Z,28.92
2022-12-03T08:34:21.995Z,30.80
2022-12-03T08:36:56.667Z,32.63
2022-12-03T08:39:30.208Z,31.08
2022-12-03T08:42:27.000Z,30.50
2022-12-03T08:44:55.496Z,31.35
2022-12-03T08:47:24.005Z,30.70
2022-12-03T08:49:54.915Z,27.45
2022-12-03T08:52:23.401Z,33.13
2022-12-03T08:54:55.714Z,29.10
2022-12-03T08:57:33.444Z,31.38
2022-12-03T09:00:21.125Z,33.80
2022-12-03T09:02:53.633Z,32.35
2022-12-03T09:05:27.810Z,32.10
2022-12-03T09:07:55.197Z,33.65
2022-12-03T09:10:22.328Z,29.17
2022-12-03T09:12:49.425Z,29.47
2022-12-03T09:15:16.757Z,28.80
2022-12-03T09:17:43.837Z,32.03
2022-12-03T09:20:11.258Z,32.38
2022-12-03T09:22:38.335Z,29.40
2022-12-03T09:25:05.847Z,33.27
2022-12-03T09:27:33.050Z,30.35
2022-12-03T09:30:00.173Z,32.58
2022-12-03T09:32:27.276Z,34.38
2022-12-03T09:34:54.908Z,34.47
2022-12-03T09:37:22.322Z,31.87
2022-12-03T09:39:49.489Z,30.55
2022-12-03T09:42:16.684Z,30.35
2022-12-03T09:44:43.876Z,30.17
2022-12-03T09:47:11.110Z,28.45
2022-12-03T09:49:39.006Z,31.30
2022-12-03T09:52:06.398Z,32.97
2022-12-03T09:54:34.188Z,32.40
2022-12-03T09:57:03.560Z,31.00
2022-12-03T09:59:32.057Z,37.75
2022-12-03T10:02:00.342Z,29.43
2022-12-03T10:04:28.859Z,32.05
2022-12-03T10:06:57.389Z,30.63
2022-12-03T10:09:26.728Z,32.38
2022-12-03T10:11:55.463Z,32.97
2022-12-03T10:14:22.589Z,34.27
2022-12-03T10:16:49.902Z,27.08
2022-12-03T10:19:24.648Z,37.97
2022-12-03T10:21:52.070Z,29.50
2022-12-03T10:24:26.884Z,29.50
2022-12-03T10:26:59.030Z,34.40
2022-12-03T10:29:34.320Z,31.25
2022-12-03T10:32:10.119Z,34.10
2022-12-03T10:34:41.633Z,33.65
2022-12-03T10:37:20.003Z,35.50
2022-12-03T10:40:01.523Z,31.57
2022-12-03T10:42:31.144Z,31.55
2022-12-03T10:45:20.200Z,29.25
2022-12-03T10:48:14.648Z,29.48
2022-12-03T10:50:54.859Z,28.98
2022-12-03T10:53:25.848Z,31.37
2022-12-03T10:55:58.742Z,31.10
2022-12-03T10:58:31.214Z,34.53
2022-12-03T11:00:59.092Z,29.77
2022-12-03T11:03:28.425Z,29.25
2022-12-03T11:05:56.314Z,28.67
2022-12-03T11:08:25.809Z,29.90
2022-12-03T11:11:00.475Z,36.75
2022-12-03T11:13:45.426Z,31.83
2022-12-03T11:16:13.847Z,32.20
2022-12-03T11:18:40.866Z,34.33
2022-12-03T11:21:13.960Z,33.15
2022-12-03T11:23:47.151Z,35.60
2022-12-03T11:26:29.252Z,33.30
2022-12-03T11:29:00.112Z,29.02
2022-12-03T11:31:38.429Z,32.10
2022-12-03T11:34:20.538Z,30.10
2022-12-03T11:37:09.452Z,33.28
2022-12-03T11:39:52.118Z,31.35
2022-12-03T11:42:28.360Z,32.80
2022-12-03T11:45:04.559Z,32.73
2022-12-03T11:47:32.808Z,34.92
2022-12-03T11:50:00.215Z,33.08
2022-12-03T11:52:30.683Z,30.30
2022-12-03T11:55:01.707Z,27.73
2022-12-03T11:57:31.886Z,28.97
2022-12-03T12:00:19.040Z,33.13
2022-12-03T12:02:46.739Z,34.85
2022-12-03T12:05:34.077Z,34.47
2022-12-03T12:08:02.222Z,29.17
2022-12-03T12:10:49.165Z,30.20
2022-12-03T12:13:31.548Z,35.03
2022-12-03T12:15:59.801Z,31.55
2022-12-03T12:18:42.640Z,28.15
2022-12-03T12:21:44.580Z,28.30
2022-12-03T12:24:33.005Z,32.17
2022-12-03T12:27:06.917Z,34.25
2022-12-03T12:29:35.043Z,30.45
2022-12-03T12:32:16.517Z,32.47
2022-12-03T12:34:49.260Z,28.58
2022-12-03T12:37:32.443Z,31.97
2022-12-03T12:40:01.288Z,31.70
2022-12-03T12:42:31.454Z,35.35
2022-12-03T12:45:07.616Z,34.47
2022-12-03T12:47:35.789Z,33.10
2022-12-03T12:50:09.242Z,32.83
2022-12-03T12:52:39.428Z,30.25
2022-12-03T12:55:07.213Z,33.13
2022-12-03T12:57:34.426Z,29.35
2022-12-03T13:00:02.284Z,34.60
2022-12-03T13:02:45.420Z,30.53
2022-12-03T13:05:13.720Z,27.50
2022-12-03T13:07:42.136Z,32.42
2022-12-03T13:10:31.397Z,29.40
2022-12-03T13:13:19.852Z,30.98
2022-12-03T13:15:55.898Z,30.87
2022-12-03T13:18:29.598Z,30.85
2022-12-03T13:20:56.760Z,28.33
2022-12-03T13:23:34.342Z,19.20
2022-12-03T13:26:21.338Z,19.27
2022-12-03T13:28:52.167Z,23.37
2022-12-03T13:31:33.072Z,21.33
2022-12-03T13:34:01.913Z,18.35
2022-12-03T13:36:39.309Z,20.88
2022-12-03T13:39:21.603Z,19.10
2022-12-03T13:42:07.746Z,23.73
2022-12-03T13:44:37.898Z,19.20
2022-12-03T13:47:12.862Z,13.93
2022-12-03T13:49:39.950Z,14.10
2022-12-03T13:52:16.163Z,17.20
2022-12-03T13:54:43.336Z,15.87
2022-12-03T13:57:10.536Z,15.02
2022-12-03T13:59:37.612Z,12.70
2022-12-03T14:02:04.756Z,11.75
2022-12-03T14:04:31.954Z,9.43
2022-12-03T14:06:58.984Z,6.97
2022-12-03T14:09:26.036Z,9.75
2022-12-03T14:12:11.718Z,9.00
2022-12-03T14:14:38.785Z,9.15
2022-12-03T14:17:06.544Z,7.35
2022-12-03T14:19:33.846Z,5.67
2022-12-03T14:22:01.254Z,8.13
2022-12-03T14:24:28.322Z,10.05
2022-12-03T14:26:55.477Z,9.63
2022-12-03T14:29:22.603Z,7.60
2022-12-03T14:31:49.830Z,9.27
2022-12-03T14:34:17.012Z,10.20
2022-12-03T14:36:44.307Z,8.82
2022-12-03T14:39:11.412Z,9.23
2022-12-03T14:41:56.957Z,5.85
2022-12-03T14:44:24.035Z,10.00
2022-12-03T14:46:56.543Z,11.75
2022-12-03T14:49:24.254Z,7.43
2022-12-03T14:51:51.398Z,8.50
2022-12-03T14:54:18.505Z,9.35
2022-12-03T14:56:45.627Z,9.90
2022-12-03T14:59:12.695Z,5.50
2022-12-03T15:01:39.870Z,8.15
2022-12-03T15:04:06.969Z,10.35
2022-12-03T15:06:34.044Z,8.82
2022-12-03T15:09:01.068Z,9.30
2022-12-03T15:11:28.595Z,9.70
2022-12-03T15:13:55.810Z,9.60
2022-12-03T15:16:23.677Z,9.85
2022-12-03T15:18:50.813Z,6.45
2022-12-03T15:21:17.909Z,8.03
2022-12-03T15:23:45.154Z,9.32
2022-12-03T15:26:12.189Z,10.25
2022-12-03T15:28:40.573Z,9.20
2022-12-03T15:31:09.128Z,9.93
2022-12-03T15:33:36.384Z,11.17
2022-12-03T15:36:03.481Z,10.27
2022-12-03T15:38:30.602Z,7.03
2022-12-03T15:40:58.254Z,9.15
2022-12-03T15:43:25.288Z,12.40
2022-12-03T15:45:52.399Z,9.87
2022-12-03T15:48:19.713Z,11.50
2022-12-03T15:50:47.195Z,11.80
2022-12-03T15:53:14.293Z,11.60
2022-12-03T15:55:41.385Z,11.43
2022-12-03T15:58:08.407Z,12.40
2022-12-03T16:00:35.465Z,10.48
2022-12-03T16:03:02.712Z,10.32
2022-12-03T16:05:29.838Z,14.25
2022-12-03T16:07:56.939Z,11.65
2022-12-03T16:10:23.970Z,15.03
2022-12-03T16:12:51.111Z,14.43
2022-12-03T16:15:22.240Z,12.70
2022-12-03T16:17:52.293Z,14.38
2022-12-03T16:20:19.337Z,12.20
2022-12-03T16:22:46.439Z,12.97
2022-12-03T16:25:13.538Z,12.75
2022-12-03T16:27:40.676Z,14.25
2022-12-03T16:30:08.258Z,13.35
2022-12-03T16:32:35.476Z,13.07
2022-12-03T16:35:02.547Z,15.13
2022-12-03T16:37:29.606Z,14.02
2022-12-03T16:39:57.116Z,13.23
2022-12-03T16:42:24.730Z,14.95
2022-12-03T16:44:54.540Z,12.65
2022-12-03T16:47:22.595Z,11.20
2022-12-03T16:49:50.674Z,14.70
2022-12-03T16:52:17.840Z,12.15
2022-12-03T16:54:44.919Z,6.20
2022-12-03T16:57:12.045Z,13.55
2022-12-03T16:59:39.131Z,13.27
2022-12-03T17:02:07.088Z,13.82
2022-12-03T17:04:34.420Z,14.40
2022-12-03T17:07:01.541Z,13.60
2022-12-03T17:09:28.619Z,13.82
2022-12-03T17:11:55.694Z,14.60
2022-12-03T17:14:22.801Z,12.18
2022-12-03T17:16:49.822Z,15.77
2022-12-03T17:19:17.181Z,15.27
2022-12-03T17:21:44.346Z,12.20
2022-12-03T17:24:11.465Z,11.47
2022-12-03T17:26:38.556Z,7.78
2022-12-03T17:29:05.642Z,15.60
2022-12-03T17:31:36.973Z,12.77
2022-12-03T17:34:07.202Z,11.90
2022-12-03T17:36:36.894Z,12.70
2022-12-03T17:39:04.101Z,13.80
2022-12-03T17:41:31.392Z,14.67
2022-12-03T17:43:58.582Z,14.98
2022-12-03T17:46:28.267Z,9.32
2022-12-03T17:48:55.444Z,11.55
2022-12-03T17:51:24.394Z,14.25
2022-12-03T17:53:51.525Z,12.97
2022-12-03T17:56:18.640Z,11.23
2022-12-03T17:58:45.705Z,13.35
2022-12-03T18:01:12.953Z,10.90
2022-12-03T18:03:40.141Z,13.13
2022-12-03T18:06:07.551Z,14.63
2022-12-03T18:08:34.787Z,10.55
2022-12-03T18:11:14.804Z,13.10
2022-12-03T18:13:42.530Z,15.20
2022-12-03T18:16:09.957Z,12.77
2022-12-03T18:18:46.357Z,12.70
2022-12-03T18:21:21.437Z,14.93
2022-12-03T18:23:56.424Z,14.52
2022-12-03T18:26:23.731Z,13.52
2022-12-03T18:28:55.550Z,13.55
2022-12-03T18:31:27.250Z,13.23
2022-12-03T18:33:59.883Z,11.73
2022-12-03T18:36:34.301Z,12.18
2022-12-03T18:39:05.130Z,14.65
2022-12-03T18:41:35.785Z,12.52
2022-12-03T18:44:06.269Z,12.57
2022-12-03T18:46:52.889Z,10.27
2022-12-03T18:49:22.006Z,11.45
2022-12-03T18:51:59.551Z,12.15
2022-12-03T18:54:26.959Z,14.35
2022-12-03T18:56:56.389Z,13.17
2022-12-03T18:59:28.293Z,11.02
2022-12-03T19:01:58.731Z,12.80
2022-12-03T19:04:25.975Z,16.48
2022-12-03T19:06:53.457Z,15.20
2022-12-03T19:09:20.896Z,14.70
2022-12-03T19:11:50.752Z,12.35
2022-12-03T19:14:18.263Z,13.45
2022-12-03T19:16:45.622Z,14.25
2022-12-03T19:19:16.115Z,11.82
2022-12-03T19:21:43.355Z,13.03
2022-12-03T19:24:30.591Z,12.18
2022-12-03T19:27:05.422Z,14.23
2022-12-03T19:29:35.939Z,13.45
2022-12-03T19:32:13.610Z,15.77
2022-12-03T19:38:13.605Z,12.90
2022-12-03T19:44:20.390Z,13.57
2022-12-03T19:46:59.370Z,13.75
2022-12-03T19:50:05.766Z,13.37
2022-12-03T19:55:50.571Z,16.33
2022-12-03T19:58:30.606Z,17.58
2022-12-03T20:01:31.779Z,15.55
2022-12-03T20:04:21.801Z,17.83
2022-12-03T20:07:13.257Z,14.73
2022-12-03T20:09:45.197Z,20.80
2022-12-03T20:12:20.375Z,13.73
2022-12-03T20:14:47.545Z,13.43
2022-12-03T20:17:14.743Z,12.90
2022-12-03T20:19:42.153Z,11.63
2022-12-03T20:22:09.352Z,12.30
2022-12-03T20:24:36.438Z,15.35
2022-12-03T20:27:03.597Z,13.55
2022-12-03T20:29:30.862Z,15.20
2022-12-03T20:31:59.772Z,12.57
2022-12-03T20:34:26.903Z,15.50
2022-12-03T20:36:54.229Z,11.85
2022-12-03T20:39:21.375Z,10.60
2022-12-03T20:41:48.478Z,11.63
2022-12-03T20:44:15.765Z,12.23
2022-12-03T20:46:42.917Z,12.80
2022-12-03T20:49:10.111Z,16.30
2022-12-03T20:51:37.240Z,12.65
2022-12-03T20:54:04.350Z,13.10
2022-12-03T20:56:34.206Z,13.20
2022-12-03T20:59:07.613Z,13.85
2022-12-03T21:01:36.361Z,13.98
2022-12-03T21:04:04.709Z,11.93
2022-12-03T21:06:34.845Z,13.73
2022-12-03T21:09:03.017Z,11.25
2022-12-03T21:11:32.397Z,14.18
2022-12-03T21:13:59.884Z,11.07
2022-12-03T21:16:58.971Z,11.32
2022-12-03T21:19:17.946Z,11.47
2022-12-03T21:21:47.995Z,5.45
2022-12-03T21:24:15.129Z,11.68
2022-12-03T21:26:42.197Z,12.23
2022-12-03T21:29:09.665Z,10.30
2022-12-03T21:31:38.382Z,14.23
2022-12-03T21:34:05.862Z,14.20
2022-12-03T21:36:32.980Z,13.43
2022-12-03T21:39:00.423Z,10.55
2022-12-03T21:41:27.551Z,13.98
2022-12-03T21:43:54.863Z,12.70
2022-12-03T21:47:10.892Z,13.65
2022-12-03T21:49:09.022Z,12.30
2022-12-03T21:51:36.108Z,11.95
2022-12-03T21:54:03.246Z,12.65
2022-12-03T21:56:31.848Z,11.40
2022-12-03T21:58:59.116Z,12.15
2022-12-03T22:01:26.480Z,12.23
2022-12-03T22:03:53.614Z,13.98
2022-12-03T22:06:21.011Z,11.43
2022-12-03T22:08:48.527Z,13.07
2022-12-03T22:11:18.221Z,11.50
2022-12-03T22:13:45.433Z,10.50
2022-12-03T22:16:15.228Z,11.18
2022-12-03T22:18:42.645Z,11.27
2022-12-03T22:21:15.279Z,11.47
2022-12-03T22:23:42.442Z,8.02
2022-12-03T22:26:12.411Z,13.30
2022-12-03T22:28:43.334Z,11.02
2022-12-03T22:31:11.047Z,11.65
2022-12-03T22:33:38.407Z,11.47
2022-12-03T22:36:08.511Z,12.93
2022-12-03T22:38:35.785Z,10.80
2022-12-03T22:41:07.720Z,9.82
2022-12-03T22:43:37.038Z,10.63
2022-12-03T22:46:05.553Z,12.17
2022-12-03T22:48:36.432Z,10.05
2022-12-03T22:51:04.674Z,13.05
2022-12-03T22:53:31.851Z,11.90
2022-12-03T22:55:59.803Z,12.65
2022-12-03T22:58:28.150Z,12.23
2022-12-03T23:01:01.261Z,11.57
2022-12-03T23:03:30.213Z,10.32
2022-12-03T23:05:57.398Z,11.50
2022-12-03T23:08:24.514Z,11.10
2022-12-03T23:10:52.967Z,10.40
2022-12-03T23:13:20.540Z,11.82
2022-12-03T23:16:06.703Z,10.00
2022-12-03T23:18:42.912Z,12.23
2022-12-03T23:21:15.310Z,10.55
2022-12-03T23:23:42.433Z,11.97
2022-12-03T23:26:11.494Z,10.52
2022-12-03T23:28:41.044Z,9.10
2022-12-03T23:31:19.223Z,11.23
2022-12-03T23:33:46.823Z,11.00
2022-12-03T23:36:14.363Z,9.23
2022-12-03T23:38:42.053Z,10.57
2022-12-03T23:41:14.808Z,11.45
2022-12-03T23:43:42.470Z,9.27
2022-12-03T23:46:12.148Z,9.45
2022-12-03T23:48:39.566Z,9.67
2022-12-03T23:51:08.331Z,11.95
2022-12-03T23:53:36.440Z,10.43
2022-12-03T23:56:08.876Z,10.98
2022-12-03T23:58:41.427Z,11.48
